sensor_id;sensor_type;location;lat;lon;timestamp;temperature;humidity
9399;DHT22;4739;49.334;8.792;2022-12-05T00:01:10;4.90;99.90
9399;DHT22;4739;49.334;8.792;2022-12-05T00:03:35;4.90;99.90
9399;DHT22;4739;49.334;8.792;2022-12-05T00:06:03;4.90;99.90
9399;DHT22;4739;49.334;8.792;2022-12-05T00:08:28;4.90;99.90
9399;DHT22;4739;49.334;8.792;2022-12-05T00:10:54;4.90;99.90
9399;DHT22;4739;49.334;8.792;2022-12-05T00:13:20;5.00;99.90
9399;DHT22;4739;49.334;8.792;2022-12-05T00:15:45;5.00;99.90
9399;DHT22;4739;49.334;8.792;2022-12-05T00:18:11;5.00;99.90
9399;DHT22;4739;49.334;8.792;2022-12-05T00:20:36;5.10;99.90
9399;DHT22;4739;49.334;8.792;2022-12-05T00:23:02;4.90;99.90
9399;DHT22;4739;49.334;8.792;2022-12-05T00:25:27;4.80;99.90
9399;DHT22;4739;49.334;8.792;2022-12-05T00:27:53;4.80;99.90
9399;DHT22;4739;49.334;8.792;2022-12-05T00:30:19;4.80;99.90
9399;DHT22;4739;49.334;8.792;2022-12-05T00:32:44;4.80;99.90
9399;DHT22;4739;49.334;8.792;2022-12-05T00:35:10;4.80;99.90
9399;DHT22;4739;49.334;8.792;2022-12-05T00:37:35;4.80;99.90
9399;DHT22;4739;49.334;8.792;2022-12-05T00:40:02;4.90;99.90
9399;DHT22;4739;49.334;8.792;2022-12-05T00:42:27;4.90;99.90
9399;DHT22;4739;49.334;8.792;2022-12-05T00:44:53;4.90;99.90
9399;DHT22;4739;49.334;8.792;2022-12-05T00:47:18;5.00;99.90
9399;DHT22;4739;49.334;8.792;2022-12-05T00:49:44;5.00;99.90
9399;DHT22;4739;49.334;8.792;2022-12-05T00:52:09;4.80;99.90
9399;DHT22;4739;49.334;8.792;2022-12-05T00:54:35;4.80;99.90
9399;DHT22;4739;49.334;8.792;2022-12-05T00:57:00;4.80;99.90
9399;DHT22;4739;49.334;8.792;2022-12-05T00:59:26;4.80;99.90
9399;DHT22;4739;49.334;8.792;2022-12-05T01:01:52;4.80;99.90
9399;DHT22;4739;49.334;8.792;2022-12-05T01:04:24;4.70;99.90
9399;DHT22;4739;49.334;8.792;2022-12-05T01:06:53;4.70;99.90
9399;DHT22;4739;49.334;8.792;2022-12-05T01:09:19;4.60;99.90
9399;DHT22;4739;49.334;8.792;2022-12-05T01:11:46;4.70;99.90
9399;DHT22;4739;49.334;8.792;2022-12-05T01:14:14;4.70;99.90
9399;DHT22;4739;49.334;8.792;2022-12-05T01:16:41;4.70;99.90
9399;DHT22;4739;49.334;8.792;2022-12-05T01:19:14;4.60;99.90
9399;DHT22;4739;49.334;8.792;2022-12-05T01:21:41;4.60;99.90
9399;DHT22;4739;49.334;8.792;2022-12-05T01:24:07;4.60;99.90
9399;DHT22;4739;49.334;8.792;2022-12-05T01:26:33;4.60;99.90
9399;DHT22;4739;49.334;8.792;2022-12-05T01:28:58;4.70;99.90
9399;DHT22;4739;49.334;8.792;2022-12-05T01:31:27;4.70;99.90
9399;DHT22;4739;49.334;8.792;2022-12-05T01:33:55;4.70;99.90
9399;DHT22;4739;49.334;8.792;2022-12-05T01:36:22;4.70;99.90
9399;DHT22;4739;49.334;8.792;2022-12-05T01:38:48;4.80;99.90
9399;DHT22;4739;49.334;8.792;2022-12-05T01:41:17;4.80;99.90
9399;DHT22;4739;49.334;8.792;2022-12-05T01:43:58;4.90;99.90
9399;DHT22;4739;49.334;8.792;2022-12-05T01:46:25;4.90;99.90
9399;DHT22;4739;49.334;8.792;2022-12-05T01:48:54;5.00;99.90
9399;DHT22;4739;49.334;8.792;2022-12-05T01:51:22;5.00;99.90
9399;DHT22;4739;49.334;8.792;2022-12-05T01:53:48;4.80;99.90
9399;DHT22;4739;49.334;8.792;2022-12-05T01:56:14;4.70;99.90
9399;DHT22;4739;49.334;8.792;2022-12-05T01:58:41;4.60;99.90
9399;DHT22;4739;49.334;8.792;2022-12-05T02:01:08;4.50;99.90
9399;DHT22;4739;49.334;8.792;2022-12-05T02:03:34;4.50;99.90
9399;DHT22;4739;49.334;8.792;2022-12-05T02:06:02;4.50;99.90
9399;DHT22;4739;49.334;8.792;2022-12-05T02:08:27;4.50;99.90
9399;DHT22;4739;49.334;8.792;2022-12-05T02:10:55;4.40;99.90
9399;DHT22;4739;49.334;8.792;2022-12-05T02:19:36;4.50;99.90
9399;DHT22;4739;49.334;8.792;2022-12-05T02:22:26;4.50;99.90
9399;DHT22;4739;49.334;8.792;2022-12-05T02:25:13;4.60;99.90
9399;DHT22;4739;49.334;8.792;2022-12-05T02:27:52;4.60;99.90
9399;DHT22;4739;49.334;8.792;2022-12-05T02:30:22;4.60;99.90
9399;DHT22;4739;49.334;8.792;2022-12-05T02:38:55;4.70;99.90
9399;DHT22;4739;49.334;8.792;2022-12-05T02:46:47;4.70;99.90
9399;DHT22;4739;49.334;8.792;2022-12-05T02:49:19;4.60;99.90
9399;DHT22;4739;49.334;8.792;2022-12-05T02:51:49;4.50;99.90
9399;DHT22;4739;49.334;8.792;2022-12-05T02:54:19;4.50;99.90
9399;DHT22;4739;49.334;8.792;2022-12-05T02:56:48;4.60;99.90
9399;DHT22;4739;49.334;8.792;2022-12-05T02:59:15;4.50;99.90
9399;DHT22;4739;49.334;8.792;2022-12-05T03:01:44;4.50;99.90
9399;DHT22;4739;49.334;8.792;2022-12-05T03:04:11;4.60;99.90
9399;DHT22;4739;49.334;8.792;2022-12-05T03:06:44;4.70;99.90
9399;DHT22;4739;49.334;8.792;2022-12-05T03:09:12;4.60;99.90
9399;DHT22;4739;49.334;8.792;2022-12-05T03:11:49;4.60;99.90
9399;DHT22;4739;49.334;8.792;2022-12-05T03:14:20;4.60;99.90
9399;DHT22;4739;49.334;8.792;2022-12-05T03:16:52;4.50;99.90
9399;DHT22;4739;49.334;8.792;2022-12-05T03:19:34;4.60;99.90
9399;DHT22;4739;49.334;8.792;2022-12-05T03:22:18;4.60;99.90
9399;DHT22;4739;49.334;8.792;2022-12-05T03:24:47;4.70;99.90
9399;DHT22;4739;49.334;8.792;2022-12-05T03:27:39;4.60;99.90
9399;DHT22;4739;49.334;8.792;2022-12-05T03:30:09;4.60;99.90
9399;DHT22;4739;49.334;8.792;2022-12-05T03:35:26;4.60;99.90
9399;DHT22;4739;49.334;8.792;2022-12-05T03:38:07;4.70;99.90
9399;DHT22;4739;49.334;8.792;2022-12-05T03:48:38;4.50;99.90
9399;DHT22;4739;49.334;8.792;2022-12-05T03:51:09;4.60;99.90
9399;DHT22;4739;49.334;8.792;2022-12-05T03:53:46;4.50;99.90
9399;DHT22;4739;49.334;8.792;2022-12-05T03:56:39;4.40;99.90
9399;DHT22;4739;49.334;8.792;2022-12-05T03:59:34;4.40;99.90
9399;DHT22;4739;49.334;8.792;2022-12-05T04:02:03;4.40;99.90
9399;DHT22;4739;49.334;8.792;2022-12-05T04:04:38;4.50;99.90
9399;DHT22;4739;49.334;8.792;2022-12-05T04:07:06;4.50;99.90
9399;DHT22;4739;49.334;8.792;2022-12-05T04:09:38;4.60;99.90
9399;DHT22;4739;49.334;8.792;2022-12-05T04:12:09;4.60;99.90
9399;DHT22;4739;49.334;8.792;2022-12-05T04:14:49;4.60;99.90
9399;DHT22;4739;49.334;8.792;2022-12-05T04:17:29;4.60;99.90
9399;DHT22;4739;49.334;8.792;2022-12-05T04:20:12;4.80;99.90
9399;DHT22;4739;49.334;8.792;2022-12-05T04:22:58;4.80;99.90
9399;DHT22;4739;49.334;8.792;2022-12-05T04:25:27;4.80;99.90
9399;DHT22;4739;49.334;8.792;2022-12-05T04:28:33;4.80;99.90
9399;DHT22;4739;49.334;8.792;2022-12-05T04:31:24;4.90;99.90
9399;DHT22;4739;49.334;8.792;2022-12-05T04:33:59;4.90;99.90
9399;DHT22;4739;49.334;8.792;2022-12-05T04:41:25;4.70;99.90
9399;DHT22;4739;49.334;8.792;2022-12-05T04:43:54;4.60;99.90
9399;DHT22;4739;49.334;8.792;2022-12-05T04:46:23;4.70;99.90
9399;DHT22;4739;49.334;8.792;2022-12-05T04:48:53;4.70;99.90
9399;DHT22;4739;49.334;8.792;2022-12-05T04:51:23;4.70;99.90
9399;DHT22;4739;49.334;8.792;2022-12-05T04:53:54;4.70;99.90
9399;DHT22;4739;49.334;8.792;2022-12-05T04:56:22;4.90;99.90
9399;DHT22;4739;49.334;8.792;2022-12-05T04:58:49;4.90;99.90
9399;DHT22;4739;49.334;8.792;2022-12-05T05:03:50;4.90;99.90
9399;DHT22;4739;49.334;8.792;2022-12-05T05:06:17;4.90;99.90
9399;DHT22;4739;49.334;8.792;2022-12-05T05:08:55;4.90;99.90
9399;DHT22;4739;49.334;8.792;2022-12-05T05:11:26;5.00;99.90
9399;DHT22;4739;49.334;8.792;2022-12-05T05:13:52;5.00;99.90
9399;DHT22;4739;49.334;8.792;2022-12-05T05:16:20;5.00;99.90
9399;DHT22;4739;49.334;8.792;2022-12-05T05:18:47;5.00;99.90
9399;DHT22;4739;49.334;8.792;2022-12-05T05:23:46;5.00;99.90
9399;DHT22;4739;49.334;8.792;2022-12-05T05:26:12;5.00;99.90
9399;DHT22;4739;49.334;8.792;2022-12-05T05:28:38;5.10;99.90
9399;DHT22;4739;49.334;8.792;2022-12-05T05:31:04;5.00;99.90
9399;DHT22;4739;49.334;8.792;2022-12-05T05:33:30;4.90;99.90
9399;DHT22;4739;49.334;8.792;2022-12-05T05:35:56;4.80;99.90
9399;DHT22;4739;49.334;8.792;2022-12-05T05:38:22;4.80;99.90
9399;DHT22;4739;49.334;8.792;2022-12-05T05:40:48;4.80;99.90
9399;DHT22;4739;49.334;8.792;2022-12-05T05:43:13;4.80;99.90
9399;DHT22;4739;49.334;8.792;2022-12-05T05:45:39;4.70;99.90
9399;DHT22;4739;49.334;8.792;2022-12-05T05:48:04;4.70;99.90
9399;DHT22;4739;49.334;8.792;2022-12-05T05:50:30;4.80;99.90
9399;DHT22;4739;49.334;8.792;2022-12-05T05:52:56;4.90;99.90
9399;DHT22;4739;49.334;8.792;2022-12-05T05:55:21;5.00;99.90
9399;DHT22;4739;49.334;8.792;2022-12-05T05:57:47;4.90;99.90
9399;DHT22;4739;49.334;8.792;2022-12-05T06:00:13;4.80;99.90
9399;DHT22;4739;49.334;8.792;2022-12-05T06:02:39;4.90;99.90
9399;DHT22;4739;49.334;8.792;2022-12-05T06:05:04;5.00;99.90
9399;DHT22;4739;49.334;8.792;2022-12-05T06:07:30;5.00;99.90
9399;DHT22;4739;49.334;8.792;2022-12-05T06:09:56;5.00;99.90
9399;DHT22;4739;49.334;8.792;2022-12-05T06:12:22;5.00;99.90
9399;DHT22;4739;49.334;8.792;2022-12-05T06:14:49;4.90;99.90
9399;DHT22;4739;49.334;8.792;2022-12-05T06:17:15;4.90;99.90
9399;DHT22;4739;49.334;8.792;2022-12-05T06:19:40;4.80;99.90
9399;DHT22;4739;49.334;8.792;2022-12-05T06:22:06;5.00;99.90
9399;DHT22;4739;49.334;8.792;2022-12-05T06:24:32;4.90;99.90
9399;DHT22;4739;49.334;8.792;2022-12-05T06:26:58;5.00;99.90
9399;DHT22;4739;49.334;8.792;2022-12-05T06:29:23;4.90;99.90
9399;DHT22;4739;49.334;8.792;2022-12-05T06:34:20;4.90;99.90
9399;DHT22;4739;49.334;8.792;2022-12-05T06:36:45;4.90;99.90
9399;DHT22;4739;49.334;8.792;2022-12-05T06:39:11;4.80;99.90
9399;DHT22;4739;49.334;8.792;2022-12-05T06:41:36;4.80;99.90
9399;DHT22;4739;49.334;8.792;2022-12-05T06:44:02;4.80;99.90
9399;DHT22;4739;49.334;8.792;2022-12-05T06:46:28;4.80;99.90
9399;DHT22;4739;49.334;8.792;2022-12-05T06:48:57;4.90;99.90
9399;DHT22;4739;49.334;8.792;2022-12-05T06:51:23;4.80;99.90
9399;DHT22;4739;49.334;8.792;2022-12-05T06:53:50;4.80;99.90
9399;DHT22;4739;49.334;8.792;2022-12-05T06:56:18;4.90;99.90
9399;DHT22;4739;49.334;8.792;2022-12-05T06:58:46;5.00;99.90
9399;DHT22;4739;49.334;8.792;2022-12-05T07:01:15;5.00;99.90
9399;DHT22;4739;49.334;8.792;2022-12-05T07:03:59;5.00;99.90
9399;DHT22;4739;49.334;8.792;2022-12-05T07:06:25;4.90;99.90
9399;DHT22;4739;49.334;8.792;2022-12-05T07:08:51;5.00;99.90
9399;DHT22;4739;49.334;8.792;2022-12-05T07:11:17;5.10;99.90
9399;DHT22;4739;49.334;8.792;2022-12-05T07:13:42;5.10;99.90
9399;DHT22;4739;49.334;8.792;2022-12-05T07:16:08;5.20;99.90
9399;DHT22;4739;49.334;8.792;2022-12-05T07:18:34;5.20;99.90
9399;DHT22;4739;49.334;8.792;2022-12-05T07:21:03;5.30;99.90
9399;DHT22;4739;49.334;8.792;2022-12-05T07:23:29;5.30;99.90
9399;DHT22;4739;49.334;8.792;2022-12-05T07:25:54;5.20;99.90
9399;DHT22;4739;49.334;8.792;2022-12-05T07:28:22;5.10;99.90
9399;DHT22;4739;49.334;8.792;2022-12-05T07:30:48;5.10;99.90
9399;DHT22;4739;49.334;8.792;2022-12-05T07:33:14;5.10;99.90
9399;DHT22;4739;49.334;8.792;2022-12-05T07:35:39;5.10;99.90
9399;DHT22;4739;49.334;8.792;2022-12-05T07:38:05;5.20;99.90
9399;DHT22;4739;49.334;8.792;2022-12-05T07:40:31;5.20;99.90
9399;DHT22;4739;49.334;8.792;2022-12-05T07:42:56;5.20;99.90
9399;DHT22;4739;49.334;8.792;2022-12-05T07:45:23;5.20;99.90
9399;DHT22;4739;49.334;8.792;2022-12-05T07:47:48;5.10;99.90
9399;DHT22;4739;49.334;8.792;2022-12-05T07:50:14;5.10;99.90
9399;DHT22;4739;49.334;8.792;2022-12-05T07:52:40;5.20;99.90
9399;DHT22;4739;49.334;8.792;2022-12-05T07:55:06;5.30;99.90
9399;DHT22;4739;49.334;8.792;2022-12-05T07:57:32;5.20;99.90
9399;DHT22;4739;49.334;8.792;2022-12-05T07:59:57;5.20;99.90
9399;DHT22;4739;49.334;8.792;2022-12-05T08:02:23;5.20;99.90
9399;DHT22;4739;49.334;8.792;2022-12-05T08:04:49;5.30;99.90
9399;DHT22;4739;49.334;8.792;2022-12-05T08:07:14;5.30;99.90
9399;DHT22;4739;49.334;8.792;2022-12-05T08:09:40;5.30;99.90
9399;DHT22;4739;49.334;8.792;2022-12-05T08:12:06;5.30;99.90
9399;DHT22;4739;49.334;8.792;2022-12-05T08:14:32;5.30;99.90
9399;DHT22;4739;49.334;8.792;2022-12-05T08:16:57;5.30;99.90
9399;DHT22;4739;49.334;8.792;2022-12-05T08:19:23;5.40;99.90
9399;DHT22;4739;49.334;8.792;2022-12-05T08:21:48;5.30;99.90
9399;DHT22;4739;49.334;8.792;2022-12-05T08:24:16;5.30;99.90
9399;DHT22;4739;49.334;8.792;2022-12-05T08:26:42;5.40;99.90
9399;DHT22;4739;49.334;8.792;2022-12-05T08:29:11;5.50;99.90
9399;DHT22;4739;49.334;8.792;2022-12-05T08:34:05;5.50;99.90
9399;DHT22;4739;49.334;8.792;2022-12-05T08:36:31;5.50;99.90
9399;DHT22;4739;49.334;8.792;2022-12-05T08:38:58;5.50;99.90
9399;DHT22;4739;49.334;8.792;2022-12-05T08:41:25;5.50;99.90
9399;DHT22;4739;49.334;8.792;2022-12-05T08:43:53;5.50;99.90
9399;DHT22;4739;49.334;8.792;2022-12-05T08:46:19;5.50;99.90
9399;DHT22;4739;49.334;8.792;2022-12-05T08:48:44;5.50;99.90
9399;DHT22;4739;49.334;8.792;2022-12-05T08:51:11;5.60;99.90
9399;DHT22;4739;49.334;8.792;2022-12-05T08:53:38;5.50;99.90
9399;DHT22;4739;49.334;8.792;2022-12-05T08:56:06;5.40;99.90
9399;DHT22;4739;49.334;8.792;2022-12-05T08:58:31;5.40;99.90
9399;DHT22;4739;49.334;8.792;2022-12-05T09:03:33;5.30;99.90
9399;DHT22;4739;49.334;8.792;2022-12-05T09:06:20;5.30;99.90
9399;DHT22;4739;49.334;8.792;2022-12-05T09:08:47;5.30;99.90
9399;DHT22;4739;49.334;8.792;2022-12-05T09:11:16;5.20;99.90
9399;DHT22;4739;49.334;8.792;2022-12-05T09:13:42;5.20;99.90
9399;DHT22;4739;49.334;8.792;2022-12-05T09:16:23;5.30;99.90
9399;DHT22;4739;49.334;8.792;2022-12-05T09:18:50;5.20;99.90
9399;DHT22;4739;49.334;8.792;2022-12-05T09:21:18;5.20;99.90
9399;DHT22;4739;49.334;8.792;2022-12-05T09:23:45;5.30;99.90
9399;DHT22;4739;49.334;8.792;2022-12-05T09:26:13;5.20;99.90
9399;DHT22;4739;49.334;8.792;2022-12-05T09:28:39;5.20;99.90
9399;DHT22;4739;49.334;8.792;2022-12-05T09:31:14;5.20;99.90
9399;DHT22;4739;49.334;8.792;2022-12-05T09:33:40;5.30;99.90
9399;DHT22;4739;49.334;8.792;2022-12-05T09:36:10;5.40;99.90
9399;DHT22;4739;49.334;8.792;2022-12-05T09:38:36;5.40;99.90
9399;DHT22;4739;49.334;8.792;2022-12-05T09:41:17;5.50;99.90
9399;DHT22;4739;49.334;8.792;2022-12-05T09:44:12;5.60;99.90
9399;DHT22;4739;49.334;8.792;2022-12-05T09:47:03;5.70;99.90
9399;DHT22;4739;49.334;8.792;2022-12-05T09:49:32;5.70;99.90
9399;DHT22;4739;49.334;8.792;2022-12-05T09:51:59;5.60;99.90
9399;DHT22;4739;49.334;8.792;2022-12-05T09:54:26;5.60;99.90
9399;DHT22;4739;49.334;8.792;2022-12-05T09:56:52;5.60;99.90
9399;DHT22;4739;49.334;8.792;2022-12-05T09:59:19;5.60;99.90
9399;DHT22;4739;49.334;8.792;2022-12-05T10:02:10;5.80;99.90
9399;DHT22;4739;49.334;8.792;2022-12-05T10:07:43;5.90;99.90
9399;DHT22;4739;49.334;8.792;2022-12-05T10:13:12;6.00;99.90
9399;DHT22;4739;49.334;8.792;2022-12-05T10:15:45;6.00;99.90
9399;DHT22;4739;49.334;8.792;2022-12-05T10:20:57;5.80;99.90
9399;DHT22;4739;49.334;8.792;2022-12-05T10:26:10;5.70;99.90
9399;DHT22;4739;49.334;8.792;2022-12-05T10:34:27;5.60;99.90
9399;DHT22;4739;49.334;8.792;2022-12-05T10:36:57;5.70;99.90
9399;DHT22;4739;49.334;8.792;2022-12-05T10:39:24;5.60;99.90
9399;DHT22;4739;49.334;8.792;2022-12-05T10:41:51;5.70;99.90
9399;DHT22;4739;49.334;8.792;2022-12-05T10:44:16;5.70;99.90
9399;DHT22;4739;49.334;8.792;2022-12-05T10:46:42;5.70;99.90
9399;DHT22;4739;49.334;8.792;2022-12-05T10:49:10;5.70;99.90
9399;DHT22;4739;49.334;8.792;2022-12-05T10:51:37;5.80;99.90
9399;DHT22;4739;49.334;8.792;2022-12-05T10:54:16;5.90;99.90
9399;DHT22;4739;49.334;8.792;2022-12-05T10:56:47;5.90;99.90
9399;DHT22;4739;49.334;8.792;2022-12-05T10:59:19;5.90;99.90
9399;DHT22;4739;49.334;8.792;2022-12-05T11:01:50;5.70;99.90
9399;DHT22;4739;49.334;8.792;2022-12-05T11:07:02;5.70;99.90
9399;DHT22;4739;49.334;8.792;2022-12-05T11:09:31;5.80;99.90
9399;DHT22;4739;49.334;8.792;2022-12-05T11:14:26;5.80;99.90
9399;DHT22;4739;49.334;8.792;2022-12-05T11:16:55;5.90;99.90
9399;DHT22;4739;49.334;8.792;2022-12-05T11:21:47;5.90;99.90
9399;DHT22;4739;49.334;8.792;2022-12-05T11:24:21;5.90;99.90
9399;DHT22;4739;49.334;8.792;2022-12-05T11:26:47;6.00;99.90
9399;DHT22;4739;49.334;8.792;2022-12-05T11:29:37;6.10;99.90
9399;DHT22;4739;49.334;8.792;2022-12-05T11:32:17;6.00;99.90
9399;DHT22;4739;49.334;8.792;2022-12-05T11:35:02;6.00;99.90
9399;DHT22;4739;49.334;8.792;2022-12-05T11:37:42;6.10;99.90
9399;DHT22;4739;49.334;8.792;2022-12-05T11:48:54;6.30;99.90
9399;DHT22;4739;49.334;8.792;2022-12-05T11:54:27;6.40;99.90
9399;DHT22;4739;49.334;8.792;2022-12-05T11:57:05;6.20;99.90
9399;DHT22;4739;49.334;8.792;2022-12-05T11:59:44;6.20;99.90
9399;DHT22;4739;49.334;8.792;2022-12-05T12:05:11;6.40;99.90
9399;DHT22;4739;49.334;8.792;2022-12-05T12:10:56;6.40;99.90
9399;DHT22;4739;49.334;8.792;2022-12-05T12:27:30;6.50;99.90
9399;DHT22;4739;49.334;8.792;2022-12-05T12:30:10;6.70;99.90
9399;DHT22;4739;49.334;8.792;2022-12-05T12:32:47;6.60;99.90
9399;DHT22;4739;49.334;8.792;2022-12-05T12:46:15;6.80;99.90
9399;DHT22;4739;49.334;8.792;2022-12-05T12:51:45;6.70;99.90
9399;DHT22;4739;49.334;8.792;2022-12-05T12:54:44;6.70;99.90
9399;DHT22;4739;49.334;8.792;2022-12-05T13:00:38;6.60;99.90
9399;DHT22;4739;49.334;8.792;2022-12-05T13:03:36;6.40;99.90
9399;DHT22;4739;49.334;8.792;2022-12-05T13:06:17;6.40;99.90
9399;DHT22;4739;49.334;8.792;2022-12-05T13:08:58;6.40;99.90
9399;DHT22;4739;49.334;8.792;2022-12-05T13:11:27;6.30;99.90
9399;DHT22;4739;49.334;8.792;2022-12-05T13:13:57;6.20;99.90
9399;DHT22;4739;49.334;8.792;2022-12-05T13:16:34;6.30;99.90
9399;DHT22;4739;49.334;8.792;2022-12-05T13:19:01;6.20;99.90
9399;DHT22;4739;49.334;8.792;2022-12-05T13:21:29;6.10;99.90
9399;DHT22;4739;49.334;8.792;2022-12-05T13:23:56;6.20;99.90
9399;DHT22;4739;49.334;8.792;2022-12-05T13:26:29;6.30;99.90
9399;DHT22;4739;49.334;8.792;2022-12-05T13:28:59;6.40;99.90
9399;DHT22;4739;49.334;8.792;2022-12-05T13:34:27;6.50;99.90
9399;DHT22;4739;49.334;8.792;2022-12-05T13:36:52;6.50;99.90
9399;DHT22;4739;49.334;8.792;2022-12-05T13:39:37;6.60;99.90
9399;DHT22;4739;49.334;8.792;2022-12-05T13:42:24;6.60;99.90
9399;DHT22;4739;49.334;8.792;2022-12-05T13:44:55;6.70;99.90
9399;DHT22;4739;49.334;8.792;2022-12-05T13:47:49;6.80;99.90
9399;DHT22;4739;49.334;8.792;2022-12-05T13:50:40;6.80;99.90
9399;DHT22;4739;49.334;8.792;2022-12-05T13:53:40;6.90;99.90
9399;DHT22;4739;49.334;8.792;2022-12-05T13:56:25;7.00;99.90
9399;DHT22;4739;49.334;8.792;2022-12-05T14:08:59;6.80;99.90
9399;DHT22;4739;49.334;8.792;2022-12-05T14:11:25;6.90;99.90
9399;DHT22;4739;49.334;8.792;2022-12-05T14:13:50;6.90;99.90
9399;DHT22;4739;49.334;8.792;2022-12-05T14:19:03;7.00;99.90
9399;DHT22;4739;49.334;8.792;2022-12-05T14:24:34;7.00;99.90
9399;DHT22;4739;49.334;8.792;2022-12-05T14:30:03;7.10;99.90
9399;DHT22;4739;49.334;8.792;2022-12-05T14:32:37;6.90;99.90
9399;DHT22;4739;49.334;8.792;2022-12-05T14:35:29;6.90;99.90
9399;DHT22;4739;49.334;8.792;2022-12-05T14:38:02;6.90;99.90
9399;DHT22;4739;49.334;8.792;2022-12-05T14:40:45;6.90;99.90
9399;DHT22;4739;49.334;8.792;2022-12-05T14:43:31;7.00;99.90
9399;DHT22;4739;49.334;8.792;2022-12-05T14:46:07;7.00;99.90
9399;DHT22;4739;49.334;8.792;2022-12-05T14:48:41;7.00;99.90
9399;DHT22;4739;49.334;8.792;2022-12-05T14:54:09;6.90;99.90
9399;DHT22;4739;49.334;8.792;2022-12-05T14:56:51;6.70;99.90
9399;DHT22;4739;49.334;8.792;2022-12-05T15:02:32;6.50;99.90
9399;DHT22;4739;49.334;8.792;2022-12-05T15:07:44;6.70;99.90
9399;DHT22;4739;49.334;8.792;2022-12-05T15:10:32;6.70;99.90
9399;DHT22;4739;49.334;8.792;2022-12-05T15:13:09;6.60;99.90
9399;DHT22;4739;49.334;8.792;2022-12-05T15:15:41;6.60;99.90
9399;DHT22;4739;49.334;8.792;2022-12-05T15:18:27;6.70;99.90
9399;DHT22;4739;49.334;8.792;2022-12-05T15:21:17;6.70;99.90
9399;DHT22;4739;49.334;8.792;2022-12-05T15:29:06;6.60;99.90
9399;DHT22;4739;49.334;8.792;2022-12-05T15:34:34;6.40;99.90
9399;DHT22;4739;49.334;8.792;2022-12-05T15:37:11;6.40;99.90
9399;DHT22;4739;49.334;8.792;2022-12-05T15:39:58;6.30;99.90
9399;DHT22;4739;49.334;8.792;2022-12-05T15:42:41;6.30;99.90
9399;DHT22;4739;49.334;8.792;2022-12-05T15:50:47;6.20;99.90
9399;DHT22;4739;49.334;8.792;2022-12-05T15:53:32;6.30;99.90
9399;DHT22;4739;49.334;8.792;2022-12-05T15:56:05;6.20;99.90
9399;DHT22;4739;49.334;8.792;2022-12-05T15:58:48;6.10;99.90
9399;DHT22;4739;49.334;8.792;2022-12-05T16:01:19;6.10;99.90
9399;DHT22;4739;49.334;8.792;2022-12-05T16:03:50;6.10;99.90
9399;DHT22;4739;49.334;8.792;2022-12-05T16:09:27;5.90;99.90
9399;DHT22;4739;49.334;8.792;2022-12-05T16:14:53;5.90;99.90
9399;DHT22;4739;49.334;8.792;2022-12-05T16:17:19;5.80;99.90
9399;DHT22;4739;49.334;8.792;2022-12-05T16:19:45;5.80;99.90
9399;DHT22;4739;49.334;8.792;2022-12-05T16:24:59;5.60;99.90
9399;DHT22;4739;49.334;8.792;2022-12-05T16:27:34;5.60;99.90
9399;DHT22;4739;49.334;8.792;2022-12-05T16:30:19;5.60;99.90
9399;DHT22;4739;49.334;8.792;2022-12-05T16:32:47;5.50;99.90
9399;DHT22;4739;49.334;8.792;2022-12-05T16:35:33;5.60;99.90
9399;DHT22;4739;49.334;8.792;2022-12-05T16:40:30;5.50;99.90
9399;DHT22;4739;49.334;8.792;2022-12-05T16:43:03;5.50;99.90
9399;DHT22;4739;49.334;8.792;2022-12-05T16:45:41;5.50;99.90
9399;DHT22;4739;49.334;8.792;2022-12-05T16:50:46;5.40;99.90
9399;DHT22;4739;49.334;8.792;2022-12-05T16:55:42;5.30;99.90
9399;DHT22;4739;49.334;8.792;2022-12-05T16:58:20;5.20;99.90
9399;DHT22;4739;49.334;8.792;2022-12-05T17:00:46;5.20;99.90
9399;DHT22;4739;49.334;8.792;2022-12-05T17:03:13;5.20;99.90
9399;DHT22;4739;49.334;8.792;2022-12-05T17:05:38;5.20;99.90
9399;DHT22;4739;49.334;8.792;2022-12-05T17:08:04;5.20;99.90
9399;DHT22;4739;49.334;8.792;2022-12-05T17:10:30;5.10;99.90
9399;DHT22;4739;49.334;8.792;2022-12-05T17:12:56;5.10;99.90
9399;DHT22;4739;49.334;8.792;2022-12-05T17:15:24;5.00;99.90
9399;DHT22;4739;49.334;8.792;2022-12-05T17:17:50;5.10;99.90
9399;DHT22;4739;49.334;8.792;2022-12-05T17:20:16;5.00;99.90
9399;DHT22;4739;49.334;8.792;2022-12-05T17:22:41;4.90;99.90
9399;DHT22;4739;49.334;8.792;2022-12-05T17:25:22;5.00;99.90
9399;DHT22;4739;49.334;8.792;2022-12-05T17:27:51;4.90;99.90
9399;DHT22;4739;49.334;8.792;2022-12-05T17:30:16;4.90;99.90
9399;DHT22;4739;49.334;8.792;2022-12-05T17:32:42;4.90;99.90
9399;DHT22;4739;49.334;8.792;2022-12-05T17:35:16;4.80;99.90
9399;DHT22;4739;49.334;8.792;2022-12-05T17:37:42;4.80;99.90
9399;DHT22;4739;49.334;8.792;2022-12-05T17:40:08;4.80;99.90
9399;DHT22;4739;49.334;8.792;2022-12-05T17:42:34;4.80;99.90
9399;DHT22;4739;49.334;8.792;2022-12-05T17:44:59;4.90;99.90
9399;DHT22;4739;49.334;8.792;2022-12-05T17:47:25;5.00;99.90
9399;DHT22;4739;49.334;8.792;2022-12-05T17:49:50;4.90;99.90
9399;DHT22;4739;49.334;8.792;2022-12-05T17:52:16;4.90;99.90
9399;DHT22;4739;49.334;8.792;2022-12-05T17:54:41;4.90;99.90
9399;DHT22;4739;49.334;8.792;2022-12-05T17:57:07;4.80;99.90
9399;DHT22;4739;49.334;8.792;2022-12-05T17:59:32;4.80;99.90
9399;DHT22;4739;49.334;8.792;2022-12-05T18:01:58;4.80;99.90
9399;DHT22;4739;49.334;8.792;2022-12-05T18:04:23;4.80;99.90
9399;DHT22;4739;49.334;8.792;2022-12-05T18:06:50;4.90;99.90
9399;DHT22;4739;49.334;8.792;2022-12-05T18:09:15;4.90;99.90
9399;DHT22;4739;49.334;8.792;2022-12-05T18:11:41;4.90;99.90
9399;DHT22;4739;49.334;8.792;2022-12-05T18:14:06;5.00;99.90
9399;DHT22;4739;49.334;8.792;2022-12-05T18:16:33;5.20;99.90
9399;DHT22;4739;49.334;8.792;2022-12-05T18:18:58;5.20;99.90
9399;DHT22;4739;49.334;8.792;2022-12-05T18:21:25;5.30;99.90
9399;DHT22;4739;49.334;8.792;2022-12-05T18:23:51;5.30;99.90
9399;DHT22;4739;49.334;8.792;2022-12-05T18:26:16;5.30;99.90
9399;DHT22;4739;49.334;8.792;2022-12-05T18:28:42;5.30;99.90
9399;DHT22;4739;49.334;8.792;2022-12-05T18:31:10;5.20;99.90
9399;DHT22;4739;49.334;8.792;2022-12-05T18:33:36;5.10;99.90
9399;DHT22;4739;49.334;8.792;2022-12-05T18:36:07;5.20;99.90
9399;DHT22;4739;49.334;8.792;2022-12-05T18:38:34;5.20;99.90
9399;DHT22;4739;49.334;8.792;2022-12-05T18:41:00;5.10;99.90
9399;DHT22;4739;49.334;8.792;2022-12-05T18:43:26;5.10;99.90
9399;DHT22;4739;49.334;8.792;2022-12-05T18:45:56;5.00;99.90
9399;DHT22;4739;49.334;8.792;2022-12-05T18:48:22;5.00;99.90
9399;DHT22;4739;49.334;8.792;2022-12-05T18:50:48;5.00;99.90
9399;DHT22;4739;49.334;8.792;2022-12-05T18:53:14;5.00;99.90
9399;DHT22;4739;49.334;8.792;2022-12-05T18:55:39;5.00;99.90
9399;DHT22;4739;49.334;8.792;2022-12-05T18:58:05;4.90;99.90
9399;DHT22;4739;49.334;8.792;2022-12-05T19:00:31;4.90;99.90
9399;DHT22;4739;49.334;8.792;2022-12-05T19:02:57;5.00;99.90
9399;DHT22;4739;49.334;8.792;2022-12-05T19:05:22;4.90;99.90
9399;DHT22;4739;49.334;8.792;2022-12-05T19:07:51;4.90;99.90
9399;DHT22;4739;49.334;8.792;2022-12-05T19:10:17;4.90;99.90
9399;DHT22;4739;49.334;8.792;2022-12-05T19:12:43;5.00;99.90
9399;DHT22;4739;49.334;8.792;2022-12-05T19:15:09;5.10;99.90
9399;DHT22;4739;49.334;8.792;2022-12-05T19:17:35;5.10;99.90
9399;DHT22;4739;49.334;8.792;2022-12-05T19:20:00;5.20;99.90
9399;DHT22;4739;49.334;8.792;2022-12-05T19:22:26;5.20;99.90
9399;DHT22;4739;49.334;8.792;2022-12-05T19:24:52;5.10;99.90
9399;DHT22;4739;49.334;8.792;2022-12-05T19:27:17;5.00;99.90
9399;DHT22;4739;49.334;8.792;2022-12-05T19:29:43;4.90;99.90
9399;DHT22;4739;49.334;8.792;2022-12-05T19:32:09;5.00;99.90
9399;DHT22;4739;49.334;8.792;2022-12-05T19:34:35;5.00;99.90
9399;DHT22;4739;49.334;8.792;2022-12-05T19:37:01;5.00;99.90